Adolph, Minnesota
Current Conditions -  °F | °C
As of 2:55 PM on Thursday 18 Dec 2014 (Local Time) from KDLH Reporting Station
Overcast Overcast  
Wind Chill: 16°   Ceiling: 2000
Heat Index: 25°   Visibility: 10mi
Dew Point: 17°   Wind: 8mph
Humidity: 72%   Direction: 120°ESE
Pressure: 30.21"   Gusts: NA
Location:  46.78°N, 92.28°W
Report Text: KDLH 182055Z 12007KT 10SM OVC020 M04/M08 A3021 RMK AO2 SLP259 T10391083 55006
Loading
Personal Weather Stations






























Interactive Weather Map New forecast layout! Learn more

10-Day Weather Forecast

Advertisements
Track Severe Weather on mobile